Time;durP1;ratioP1;P1;durP2;ratioP2;P2;SDS_P1;SDS_P2;PMS_P1;PMS_P2;Temp;Humidity;BMP_temperature;BMP_pressure;BME280_temperature;BME280_humidity;BME280_pressure;Samples;Min_cycle;Max_cycle;Signal;HPM_P1;HPM_P2
2021/07/31 00:01:05;;;;;;;;;3.25;1.00;;;;;21.02;48.28;100729.22;5001052;28;47071;-68
2021/07/31 00:03:31;;;;;;;;;1.00;1.00;;;;;20.81;48.45;100710.03;4992953;28;45460;-68
2021/07/31 00:05:56;;;;;;;;;1.00;1.00;;;;;20.86;48.47;100715.09;5001127;28;45260;-67
2021/07/31 00:08:22;;;;;;;;;1.50;0.75;;;;;20.98;48.65;100749.47;5001153;28;45244;-67
2021/07/31 00:10:48;;;;;;;;;1.75;0.75;;;;;20.95;48.12;100743.38;5001027;28;47217;-68
2021/07/31 00:13:13;;;;;;;;;4.25;1.25;;;;;20.90;48.56;100738.31;4989137;28;45265;-68
2021/07/31 00:15:38;;;;;;;;;1.00;1.00;;;;;20.71;48.63;100722.56;5002713;28;45238;-68
2021/07/31 00:18:04;;;;;;;;;1.00;1.00;;;;;20.67;48.87;100708.38;5000810;28;45600;-67
2021/07/31 00:20:29;;;;;;;;;1.00;1.00;;;;;20.85;48.75;100748.66;5002037;28;46028;-67
2021/07/31 00:22:54;;;;;;;;;1.00;1.00;;;;;20.69;48.68;100727.22;5002048;28;45301;-68
2021/07/31 00:25:20;;;;;;;;;1.00;1.00;;;;;20.62;48.59;100718.66;5000886;28;45361;-67
2021/07/31 00:27:45;;;;;;;;;4.00;2.00;;;;;20.85;48.37;100754.09;5000680;28;45618;-68
2021/07/31 00:30:11;;;;;;;;;4.00;1.00;;;;;20.82;48.66;100752.44;5002144;28;45272;-68
2021/07/31 00:32:36;;;;;;;;;2.00;1.00;;;;;20.48;48.52;100697.13;5001807;28;45360;-68
2021/07/31 00:35:02;;;;;;;;;1.00;1.00;;;;;20.75;48.66;100744.88;5002368;28;45406;-67
2021/07/31 00:37:27;;;;;;;;;1.00;1.00;;;;;20.63;48.56;100722.25;5000826;28;45365;-68
2021/07/31 00:39:53;;;;;;;;;0.00;0.00;;;;;20.66;48.70;100735.59;5002054;28;45433;-68
2021/07/31 00:42:19;;;;;;;;;1.00;1.00;;;;;20.78;49.08;100748.25;5001611;28;45430;-67
2021/07/31 00:44:44;;;;;;;;;1.00;1.00;;;;;20.48;48.92;100700.72;5001903;28;45353;-67
2021/07/31 00:47:10;;;;;;;;;0.00;0.00;;;;;20.72;49.10;100751.41;5000699;28;45241;-67
2021/07/31 00:49:36;;;;;;;;;1.25;1.00;;;;;20.69;48.79;100748.94;5001553;28;45431;-67
2021/07/31 00:52:03;;;;;;;;;1.00;1.00;;;;;20.60;48.82;100750.47;5000386;28;45342;-67
2021/07/31 00:54:29;;;;;;;;;1.00;1.00;;;;;20.55;48.95;100736.38;5001519;28;45277;-67
2021/07/31 00:56:54;;;;;;;;;2.00;1.00;;;;;20.34;49.17;100715.28;5001722;28;45588;-67
2021/07/31 00:59:20;;;;;;;;;1.00;1.00;;;;;20.42;49.43;100731.00;4999868;28;47233;-67
2021/07/31 01:01:46;;;;;;;;;1.50;1.50;;;;;20.34;49.92;100723.41;5000755;28;45518;-68
2021/07/31 01:04:12;;;;;;;;;3.50;1.00;;;;;20.58;49.87;100760.56;5001551;28;45338;-67
2021/07/31 01:06:37;;;;;;;;;2.75;1.00;;;;;20.38;49.94;100747.59;5001477;28;45618;-67
2021/07/31 01:09:03;;;;;;;;;2.00;2.00;;;;;20.47;49.71;100755.91;5001321;28;45954;-67
2021/07/31 01:11:28;;;;;;;;;2.00;2.00;;;;;20.49;49.60;100758.53;5001343;28;45380;-68
2021/07/31 01:13:54;;;;;;;;;1.00;1.00;;;;;20.48;49.97;100756.78;5001171;28;45545;-68
2021/07/31 01:16:20;;;;;;;;;1.75;1.75;;;;;20.30;49.77;100726.50;4999883;28;45432;-67
2021/07/31 01:18:45;;;;;;;;;1.00;1.00;;;;;20.25;50.44;100720.53;5001172;28;45405;-68
2021/07/31 01:21:33;;;;;;;;;0.00;0.00;;;;;20.50;50.23;100760.25;4980186;28;45743;-67
2021/07/31 01:23:59;;;;;;;;;1.00;1.00;;;;;20.48;49.94;100757.66;4999852;28;45367;-68
2021/07/31 01:26:24;;;;;;;;;2.50;0.50;;;;;20.46;50.00;100765.00;5001399;28;45315;-67
2021/07/31 01:28:50;;;;;;;;;2.25;2.00;;;;;20.42;49.91;100751.81;5000924;28;45300;-67
2021/07/31 01:31:15;;;;;;;;;1.00;1.00;;;;;20.45;50.40;100765.16;5001311;28;45280;-67
2021/07/31 01:33:40;;;;;;;;;1.25;1.25;;;;;20.42;50.61;100763.53;5000776;28;45492;-67
2021/07/31 01:36:06;;;;;;;;;2.25;2.25;;;;;20.39;50.54;100760.19;5001241;28;45314;-67
2021/07/31 01:38:31;;;;;;;;;1.00;1.00;;;;;20.35;50.33;100754.97;5001011;28;45464;-67
2021/07/31 01:40:56;;;;;;;;;1.50;1.50;;;;;20.32;50.65;100763.34;5000987;28;45463;-67
2021/07/31 01:43:22;;;;;;;;;1.50;0.25;;;;;20.32;50.44;100765.19;5001145;28;45367;-67
2021/07/31 01:45:47;;;;;;;;;4.50;2.25;;;;;20.30;50.47;100756.31;5000863;28;45472;-67
2021/07/31 01:48:12;;;;;;;;;4.00;2.25;;;;;20.27;50.78;100761.94;5000648;28;46527;-67
2021/07/31 01:50:40;;;;;;;;;3.00;1.75;;;;;20.29;50.49;100766.25;5000976;28;45353;-67
2021/07/31 01:53:05;;;;;;;;;1.00;1.00;;;;;20.27;50.86;100765.50;5000693;28;45537;-67
2021/07/31 01:55:31;;;;;;;;;4.50;3.00;;;;;20.26;50.68;100762.91;5000969;28;45370;-68
2021/07/31 01:57:56;;;;;;;;;1.00;1.00;;;;;20.22;50.81;100762.28;4998137;28;45338;-67
2021/07/31 02:00:21;;;;;;;;;2.00;2.00;;;;;20.20;50.92;100758.81;5000961;28;45225;-67
2021/07/31 02:02:46;;;;;;;;;3.75;1.75;;;;;20.22;51.07;100754.16;5000206;28;50505;-67
2021/07/31 02:05:12;;;;;;;;;1.75;1.75;;;;;20.21;51.30;100768.66;5000922;28;45339;-67
2021/07/31 02:07:37;;;;;;;;;1.00;1.00;;;;;20.20;51.27;100764.22;5000596;28;45246;-67
2021/07/31 02:10:03;;;;;;;;;1.00;1.00;;;;;20.16;51.10;100763.59;5000611;28;47436;-67
2021/07/31 02:12:28;;;;;;;;;1.00;1.00;;;;;20.14;51.14;100757.41;4999686;28;45455;-67
2021/07/31 02:14:53;;;;;;;;;1.50;1.50;;;;;20.16;51.38;100760.00;5000379;28;45623;-67
2021/07/31 02:17:19;;;;;;;;;2.75;1.75;;;;;20.12;51.54;100748.53;5000462;28;45324;-67
2021/07/31 02:19:44;;;;;;;;;3.00;1.00;;;;;20.15;51.57;100750.16;5000473;28;50517;-67
2021/07/31 02:22:09;;;;;;;;;2.50;1.00;;;;;20.04;51.57;100744.63;5000412;28;45217;-67
2021/07/31 02:24:35;;;;;;;;;1.50;1.50;;;;;20.07;51.71;100750.69;5000285;28;45180;-67
2021/07/31 02:27:00;;;;;;;;;2.00;2.00;;;;;20.07;51.74;100755.25;4999906;28;56032;-67
2021/07/31 02:29:26;;;;;;;;;1.25;0.00;;;;;19.98;51.69;100745.97;5000390;28;45121;-67
2021/07/31 02:31:54;;;;;;;;;1.75;1.75;;;;;19.93;51.90;100739.97;4999048;28;45241;-67
2021/07/31 02:34:19;;;;;;;;;1.00;1.00;;;;;19.90;51.96;100738.38;4998678;28;45297;-67
2021/07/31 02:36:44;;;;;;;;;1.25;1.25;;;;;19.91;51.82;100737.41;5000134;28;46177;-67
2021/07/31 02:39:10;;;;;;;;;2.00;1.00;;;;;19.97;51.91;100752.34;5000268;28;45426;-67
2021/07/31 02:41:35;;;;;;;;;0.50;0.50;;;;;19.68;52.28;100711.03;5000217;28;45293;-67
2021/07/31 02:44:01;;;;;;;;;2.00;1.00;;;;;19.61;52.02;100697.97;4999890;28;45424;-68
2021/07/31 02:46:26;;;;;;;;;1.00;1.00;;;;;19.94;52.10;100744.44;5000123;28;45324;-67
2021/07/31 02:48:51;;;;;;;;;2.00;1.00;;;;;19.95;52.09;100751.59;5000013;28;45384;-67
2021/07/31 02:51:18;;;;;;;;;1.00;1.00;;;;;19.75;52.38;100715.94;5000270;28;45385;-67
2021/07/31 02:53:43;;;;;;;;;3.25;1.25;;;;;19.89;52.37;100739.34;4999769;28;45462;-68
2021/07/31 02:56:09;;;;;;;;;1.75;1.50;;;;;19.88;52.13;100737.63;5014989;28;47249;-67
2021/07/31 02:58:34;;;;;;;;;1.00;1.00;;;;;19.79;52.41;100733.69;4999610;28;45443;-67
2021/07/31 03:01:04;;;;;;;;;2.50;2.00;;;;;19.73;52.31;100715.16;4999861;28;45264;-68
2021/07/31 03:03:30;;;;;;;;;1.00;1.00;;;;;19.54;52.42;100685.81;4999781;28;45338;-67
2021/07/31 03:05:57;;;;;;;;;2.00;1.00;;;;;19.81;52.04;100736.31;4999720;28;46447;-67
2021/07/31 03:08:22;;;;;;;;;5.00;1.00;;;;;19.82;52.74;100737.19;5000046;28;45447;-67
2021/07/31 03:11:00;;;;;;;;;1.00;1.00;;;;;19.56;52.45;100708.25;4998437;28;45349;-67
2021/07/31 03:13:26;;;;;;;;;2.00;2.00;;;;;19.78;53.25;100736.56;4988340;28;45212;-67
2021/07/31 03:15:52;;;;;;;;;2.25;2.00;;;;;19.68;53.25;100728.19;4999474;28;46127;-67
2021/07/31 03:18:18;;;;;;;;;1.75;1.00;;;;;19.52;52.68;100711.28;4999639;28;45429;-67
2021/07/31 03:20:45;;;;;;;;;1.00;1.00;;;;;19.70;53.06;100736.19;4999744;28;45299;-67
2021/07/31 03:23:10;;;;;;;;;1.00;1.00;;;;;19.69;53.00;100734.44;4999396;28;45430;-67
2021/07/31 03:25:36;;;;;;;;;2.00;2.00;;;;;19.68;53.22;100730.00;5002040;28;45328;-67
2021/07/31 03:28:01;;;;;;;;;2.50;1.00;;;;;19.40;53.00;100691.34;5001754;28;45309;-67
2021/07/31 03:30:26;;;;;;;;;1.25;1.25;;;;;19.44;53.18;100701.88;5002991;28;45197;-67
2021/07/31 03:32:53;;;;;;;;;2.00;1.75;;;;;19.61;53.23;100733.16;5002991;28;45209;-67
2021/07/31 03:35:18;;;;;;;;;1.00;1.00;;;;;19.63;53.17;100739.31;5002670;28;47322;-67
2021/07/31 03:37:44;;;;;;;;;1.00;1.00;;;;;19.29;53.06;100686.69;5001677;28;45233;-67
2021/07/31 03:40:09;;;;;;;;;1.25;1.25;;;;;19.54;53.31;100734.53;5001759;28;45264;-67
2021/07/31 03:42:35;;;;;;;;;3.00;3.00;;;;;19.53;53.37;100732.81;5001320;28;45507;-67
2021/07/31 03:45:00;;;;;;;;;1.00;1.00;;;;;19.39;53.30;100713.97;5002598;28;45365;-67
2021/07/31 03:47:25;;;;;;;;;1.00;1.00;;;;;19.38;53.85;100713.09;5002701;28;45322;-67
2021/07/31 03:49:51;;;;;;;;;2.00;2.00;;;;;19.53;53.54;100738.25;5001399;28;45386;-67
2021/07/31 03:52:16;;;;;;;;;1.00;1.00;;;;;19.35;53.47;100712.47;5001479;28;45658;-67
2021/07/31 03:54:42;;;;;;;;;2.25;1.25;;;;;19.36;53.64;100715.06;4984567;28;47196;-67
2021/07/31 03:57:07;;;;;;;;;3.25;2.00;;;;;19.43;53.81;100727.19;5002729;28;45330;-67
2021/07/31 03:59:32;;;;;;;;;3.25;2.00;;;;;19.48;53.17;100739.53;5000172;28;45445;-67
2021/07/31 04:01:58;;;;;;;;;2.00;2.00;;;;;19.33;53.44;100725.22;5002619;28;45350;-67
2021/07/31 04:04:23;;;;;;;;;1.50;1.00;;;;;19.36;53.55;100727.72;5000783;28;46359;-67
2021/07/31 04:06:48;;;;;;;;;2.00;1.00;;;;;19.22;53.72;100707.88;4997947;28;45936;-67
2021/07/31 04:09:14;;;;;;;;;3.00;1.25;;;;;19.50;54.12;100760.09;4998293;28;45292;-67
2021/07/31 04:11:39;;;;;;;;;4.00;2.50;;;;;19.29;54.03;100724.56;5002389;28;45479;-67
2021/07/31 04:14:04;;;;;;;;;2.00;2.00;;;;;19.24;53.89;100715.91;5002114;28;46728;-67
2021/07/31 04:16:30;;;;;;;;;2.75;1.50;;;;;19.48;53.95;100769.28;5002320;28;45317;-67
2021/07/31 04:18:55;;;;;;;;;2.00;2.00;;;;;19.30;54.20;100730.88;5001079;28;45430;-67
2021/07/31 04:21:21;;;;;;;;;2.00;2.00;;;;;19.36;54.06;100741.25;5001025;28;45754;-67
2021/07/31 04:23:46;;;;;;;;;1.00;1.00;;;;;19.27;54.09;100729.22;5001697;28;46494;-67
2021/07/31 04:26:14;;;;;;;;;1.00;1.00;;;;;19.43;54.30;100753.41;5001004;28;46106;-67
2021/07/31 04:28:41;;;;;;;;;1.00;1.00;;;;;19.24;54.41;100730.31;5001988;28;45166;-67
2021/07/31 04:31:14;;;;;;;;;1.25;1.25;;;;;19.21;54.05;100726.94;5002396;28;45230;-67
2021/07/31 04:33:40;;;;;;;;;2.75;1.25;;;;;19.31;54.35;100748.81;5000489;28;45361;-67
2021/07/31 04:36:06;;;;;;;;;3.00;3.00;;;;;19.03;54.17;100702.88;5000964;28;45469;-67
2021/07/31 04:38:33;;;;;;;;;0.50;0.50;;;;;19.21;54.67;100737.75;5002116;28;45498;-67
2021/07/31 04:40:58;;;;;;;;;1.00;1.00;;;;;19.13;54.75;100718.47;5000740;28;46188;-67
2021/07/31 04:43:24;;;;;;;;;2.00;2.00;;;;;19.32;54.49;100761.38;5000210;28;47245;-67
2021/07/31 04:45:49;;;;;;;;;2.25;2.00;;;;;19.05;54.46;100727.13;5001763;28;45431;-67
2021/07/31 04:48:15;;;;;;;;;2.00;2.00;;;;;19.27;55.02;100760.84;5000407;28;45587;-67
2021/07/31 04:50:40;;;;;;;;;4.00;3.00;;;;;19.18;54.94;100751.53;5000687;28;45831;-67
2021/07/31 04:53:06;;;;;;;;;1.00;1.00;;;;;19.16;54.87;100751.63;5001390;28;47138;-67
2021/07/31 04:55:31;;;;;;;;;2.50;2.50;;;;;19.08;55.38;100737.75;5000348;28;45895;-67
2021/07/31 04:57:57;;;;;;;;;2.50;2.50;;;;;19.02;55.33;100730.03;4998490;28;45323;-67
2021/07/31 05:00:22;;;;;;;;;4.75;2.00;;;;;19.20;55.51;100754.97;5000360;28;45510;-67
2021/07/31 05:02:47;;;;;;;;;1.00;1.00;;;;;19.24;55.47;100768.19;5001289;28;45527;-67
2021/07/31 05:05:13;;;;;;;;;3.00;2.25;;;;;19.25;55.37;100774.47;5001669;28;45248;-67
2021/07/31 05:07:38;;;;;;;;;2.00;2.00;;;;;18.99;55.16;100728.41;5001530;28;45340;-67
2021/07/31 05:10:04;;;;;;;;;2.75;2.75;;;;;19.16;55.43;100764.25;5001586;28;45415;-67
2021/07/31 05:12:30;;;;;;;;;2.00;2.00;;;;;19.21;55.35;100771.13;5000830;28;46382;-67
2021/07/31 05:14:55;;;;;;;;;4.75;4.75;;;;;19.22;55.47;100771.97;5000234;28;45230;-67
2021/07/31 05:17:21;;;;;;;;;2.00;2.00;;;;;19.22;55.20;100769.25;4997547;28;45673;-67
2021/07/31 05:19:47;;;;;;;;;3.00;3.00;;;;;19.20;55.79;100766.66;5000140;28;45462;-67
2021/07/31 05:22:16;;;;;;;;;4.50;2.75;;;;;19.20;55.66;100768.50;5001016;28;45433;-67
2021/07/31 05:24:42;;;;;;;;;2.50;2.50;;;;;19.12;55.72;100752.78;5001132;28;45335;-67
2021/07/31 05:27:08;;;;;;;;;1.75;1.25;;;;;19.05;55.65;100735.25;5000038;28;45451;-67
2021/07/31 05:29:33;;;;;;;;;2.75;2.75;;;;;19.29;55.57;100784.09;4999784;28;45274;-67
2021/07/31 05:31:59;;;;;;;;;2.75;2.75;;;;;19.05;55.71;100733.41;5000858;28;46083;-67
2021/07/31 05:34:24;;;;;;;;;2.25;2.25;;;;;19.25;55.80;100759.09;4999519;28;45640;-67
2021/07/31 05:36:50;;;;;;;;;3.50;3.50;;;;;18.93;55.73;100717.13;5001057;28;45207;-67
2021/07/31 05:39:15;;;;;;;;;4.25;2.75;;;;;19.14;55.42;100747.28;4998190;28;45447;-67
2021/07/31 05:41:41;;;;;;;;;2.00;2.00;;;;;19.06;55.55;100745.06;5010019;28;48569;-67
2021/07/31 05:44:06;;;;;;;;;4.00;3.00;;;;;19.01;55.63;100734.59;4999488;28;45575;-67
2021/07/31 05:46:32;;;;;;;;;3.50;2.75;;;;;18.99;55.30;100730.25;5000348;28;45494;-67
2021/07/31 05:48:57;;;;;;;;;3.50;2.50;;;;;19.00;56.04;100730.13;5000436;28;45399;-66
2021/07/31 05:51:22;;;;;;;;;3.00;2.75;;;;;19.34;55.99;100781.09;4998946;28;46036;-67
2021/07/31 05:53:48;;;;;;;;;2.75;2.50;;;;;19.28;55.64;100778.78;4999833;28;45561;-78
2021/07/31 05:56:14;;;;;;;;;2.50;2.50;;;;;19.18;55.99;100760.50;5000203;28;45369;-77
2021/07/31 05:58:40;;;;;;;;;3.00;2.00;;;;;19.16;55.87;100750.72;4999881;28;45339;-76
2021/07/31 06:01:06;;;;;;;;;3.50;3.50;;;;;19.31;56.03;100784.00;5000455;28;45383;-80
2021/07/31 06:03:36;;;;;;;;;8.50;3.00;;;;;19.32;56.19;100789.31;5000282;28;45434;-77
2021/07/31 06:06:01;;;;;;;;;4.00;3.25;;;;;19.07;56.26;100760.34;5000745;28;45240;-80
2021/07/31 06:08:27;;;;;;;;;3.25;3.00;;;;;19.10;55.90;100756.59;5000139;28;45454;-79
2021/07/31 06:11:04;;;;;;;;;2.50;2.50;;;;;19.27;56.58;100788.75;4998962;28;47178;-79
2021/07/31 06:13:29;;;;;;;;;3.50;3.50;;;;;19.19;56.19;100767.63;4999889;28;45490;-80
2021/07/31 06:15:55;;;;;;;;;5.75;3.00;;;;;19.19;56.42;100772.19;5000435;28;45339;-79
2021/07/31 06:18:21;;;;;;;;;3.00;3.00;;;;;19.27;56.34;100774.38;5000152;28;45495;-80
2021/07/31 06:20:46;;;;;;;;;4.25;2.25;;;;;19.26;56.40;100778.91;4999666;28;45599;-81
2021/07/31 06:23:11;;;;;;;;;2.75;2.75;;;;;19.28;56.54;100784.19;4999941;28;45370;-81
2021/07/31 06:25:36;;;;;;;;;3.00;3.00;;;;;19.20;56.03;100766.66;5000254;28;45232;-85
2021/07/31 06:28:02;;;;;;;;;2.00;2.00;;;;;19.35;56.33;100794.50;5000178;28;45549;-81
2021/07/31 06:30:27;;;;;;;;;5.25;3.50;;;;;19.24;56.09;100776.31;4998881;28;47192;-81
2021/07/31 06:32:53;;;;;;;;;4.50;3.50;;;;;19.47;57.04;100811.75;5001825;28;45295;-80
2021/07/31 06:35:18;;;;;;;;;6.00;3.50;;;;;19.28;56.55;100781.50;5000334;28;45260;-80
2021/07/31 06:37:43;;;;;;;;;3.00;2.75;;;;;19.24;56.38;100773.63;4999880;28;46151;-75
2021/07/31 06:40:10;;;;;;;;;3.00;1.75;;;;;19.31;56.59;100778.59;5000012;28;45351;-77
2021/07/31 06:42:35;;;;;;;;;3.50;2.75;;;;;19.43;56.50;100799.41;4998933;28;45285;-76
2021/07/31 06:45:01;;;;;;;;;3.25;2.75;;;;;19.32;56.49;100777.63;4999242;28;45310;-78
2021/07/31 06:47:26;;;;;;;;;4.00;4.00;;;;;19.51;56.38;100805.19;4998066;28;45661;-77
2021/07/31 06:49:52;;;;;;;;;4.75;4.00;;;;;19.37;56.36;100783.59;5002587;28;47023;-78
2021/07/31 06:52:17;;;;;;;;;3.00;2.00;;;;;19.44;56.31;100788.50;5004124;28;45325;-77
2021/07/31 06:54:42;;;;;;;;;3.75;3.75;;;;;19.35;56.59;100772.88;5002722;28;45395;-79
2021/07/31 06:57:09;;;;;;;;;2.50;2.25;;;;;19.38;56.39;100766.38;4998448;28;45999;-76
2021/07/31 06:59:35;;;;;;;;;3.00;3.00;;;;;19.48;55.91;100782.84;5000781;28;45540;-78
2021/07/31 07:02:00;;;;;;;;;3.75;3.75;;;;;19.61;55.94;100808.97;5001459;28;45395;-78
2021/07/31 07:04:25;;;;;;;;;5.50;5.00;;;;;19.63;55.86;100812.44;5001864;28;45478;-77
2021/07/31 07:06:51;;;;;;;;;4.00;4.00;;;;;19.58;55.86;100811.03;5003198;28;45313;-76
2021/07/31 07:09:16;;;;;;;;;4.00;3.00;;;;;19.51;56.04;100783.50;5001977;28;48230;-78
2021/07/31 07:11:43;;;;;;;;;3.25;3.25;;;;;19.52;56.11;100790.66;5003087;28;45257;-74
2021/07/31 07:14:09;;;;;;;;;2.50;2.50;;;;;19.52;56.13;100795.19;5002579;28;45503;-72
2021/07/31 07:16:34;;;;;;;;;3.00;3.00;;;;;19.71;56.04;100824.56;5006517;28;45655;-75
2021/07/31 07:19:00;;;;;;;;;4.25;4.25;;;;;19.56;55.97;100792.19;5008276;28;45432;-75
2021/07/31 07:21:25;;;;;;;;;4.75;4.75;;;;;19.72;56.33;100818.19;5006594;28;45288;-73
2021/07/31 07:23:50;;;;;;;;;4.75;4.25;;;;;19.79;55.90;100827.63;4997758;28;45335;-73
2021/07/31 07:26:16;;;;;;;;;3.50;3.25;;;;;19.52;56.25;100782.53;5003099;28;45284;-72
2021/07/31 07:28:41;;;;;;;;;4.75;4.00;;;;;19.80;55.81;100832.94;5002601;28;45738;-75
2021/07/31 07:31:11;;;;;;;;;4.00;3.00;;;;;19.82;55.79;100832.84;5002643;28;45460;-77
2021/07/31 07:33:36;;;;;;;;;3.00;3.00;;;;;19.65;55.97;100798.78;5002879;28;45304;-79
2021/07/31 07:36:02;;;;;;;;;4.75;3.50;;;;;19.86;55.89;100838.91;5003018;28;45495;-79
2021/07/31 07:38:27;;;;;;;;;5.00;4.00;;;;;19.87;56.06;100830.69;5002639;28;45752;-79
2021/07/31 07:40:53;;;;;;;;;4.50;4.50;;;;;19.75;55.93;100812.59;5002647;28;45162;-78
2021/07/31 07:43:18;;;;;;;;;5.00;4.25;;;;;19.91;55.82;100824.09;5001327;28;45436;-81
2021/07/31 07:45:45;;;;;;;;;4.00;4.00;;;;;19.71;55.88;100802.91;5001478;28;45221;-79
2021/07/31 07:48:11;;;;;;;;;4.00;4.00;;;;;19.72;55.80;100793.81;5002538;28;46510;-78
2021/07/31 07:50:36;;;;;;;;;2.25;2.25;;;;;19.97;56.24;100829.06;4988358;28;45562;-76
2021/07/31 07:53:02;;;;;;;;;4.00;4.00;;;;;19.85;56.06;100801.97;4986542;28;45321;-76
2021/07/31 07:55:27;;;;;;;;;3.75;3.75;;;;;20.08;55.87;100833.72;5001756;28;45603;-76
2021/07/31 07:57:52;;;;;;;;;3.50;3.50;;;;;20.11;55.65;100829.91;5001572;28;46280;-75
2021/07/31 08:00:18;;;;;;;;;3.75;3.75;;;;;20.06;55.87;100811.28;5002342;28;45650;-76
2021/07/31 08:02:43;;;;;;;;;2.50;2.50;;;;;20.12;56.17;100818.13;5001989;28;45438;-76
2021/07/31 08:05:11;;;;;;;;;3.75;3.00;;;;;20.08;55.75;100801.22;5002068;28;45439;-78
2021/07/31 08:07:37;;;;;;;;;7.00;4.00;;;;;20.29;55.59;100825.91;5000688;28;47949;-77
2021/07/31 08:10:02;;;;;;;;;3.25;3.00;;;;;20.14;55.49;100798.03;5000766;28;45555;-77
2021/07/31 08:12:28;;;;;;;;;6.25;4.25;;;;;20.32;55.78;100825.69;5000535;28;45225;-78
2021/07/31 08:14:53;;;;;;;;;4.75;2.50;;;;;20.41;55.26;100824.13;5002430;28;45412;-78
2021/07/31 08:17:18;;;;;;;;;3.00;3.00;;;;;20.19;55.38;100784.16;5001820;28;46182;-77
2021/07/31 08:19:44;;;;;;;;;2.00;2.00;;;;;20.48;54.82;100833.59;5001819;28;45253;-78
2021/07/31 08:22:09;;;;;;;;;4.00;4.00;;;;;20.29;55.01;100792.50;5002011;28;45308;-76
2021/07/31 08:24:34;;;;;;;;;4.75;3.75;;;;;20.45;54.32;100816.69;5001832;28;45832;-76
2021/07/31 08:27:00;;;;;;;;;3.75;3.75;;;;;20.47;54.49;100814.72;5001706;28;45292;-76
2021/07/31 08:29:25;;;;;;;;;3.50;3.50;;;;;20.35;54.03;100792.94;5000808;28;45430;-76
2021/07/31 08:31:51;;;;;;;;;3.25;3.25;;;;;20.43;54.47;100796.91;5001939;28;45492;-75
2021/07/31 08:34:17;;;;;;;;;4.00;4.00;;;;;20.57;54.28;100814.91;5000604;28;51505;-77
2021/07/31 08:36:42;;;;;;;;;4.75;4.75;;;;;20.45;54.54;100793.13;5001809;28;46224;-77
2021/07/31 08:39:08;;;;;;;;;4.50;4.00;;;;;20.48;53.94;100795.63;5000657;28;45369;-77
2021/07/31 08:41:33;;;;;;;;;5.50;4.25;;;;;20.59;53.94;100808.38;5001828;28;45297;-76
2021/07/31 08:44:00;;;;;;;;;3.50;3.50;;;;;20.66;53.96;100816.97;5000280;28;46030;-75
2021/07/31 08:46:27;;;;;;;;;6.00;2.50;;;;;20.71;53.61;100821.09;5001669;28;46220;-76
2021/07/31 08:48:53;;;;;;;;;3.00;3.00;;;;;20.57;53.60;100790.50;5000452;28;45805;-75
2021/07/31 08:51:20;;;;;;;;;3.75;3.75;;;;;20.82;53.28;100830.28;5000648;28;45319;-78
2021/07/31 08:53:45;;;;;;;;;4.00;4.00;;;;;20.83;54.09;100821.13;5000057;28;45561;-72
2021/07/31 08:56:10;;;;;;;;;4.50;3.25;;;;;20.64;53.80;100789.09;5001505;28;45546;-72
2021/07/31 08:58:42;;;;;;;;;3.00;3.00;;;;;20.86;53.26;100823.63;5001210;28;45158;-74
2021/07/31 09:01:09;;;;;;;;;3.25;3.00;;;;;20.72;53.86;100802.97;5001414;28;45400;-74
2021/07/31 09:03:45;;;;;;;;;3.75;3.25;;;;;20.65;53.58;100788.97;5001464;28;45332;-75
2021/07/31 09:06:31;;;;;;;;;3.00;3.00;;;;;20.92;53.76;100832.16;5001246;28;45574;-73
2021/07/31 09:08:58;;;;;;;;;4.50;4.50;;;;;20.82;53.58;100805.84;5001522;28;46743;-76
2021/07/31 09:11:24;;;;;;;;;5.25;4.00;;;;;20.97;53.60;100826.41;5001359;28;45490;-77
2021/07/31 09:14:11;;;;;;;;;4.00;4.00;;;;;20.91;53.39;100814.19;4999796;28;45552;-77
2021/07/31 09:16:37;;;;;;;;;4.25;4.00;;;;;20.98;53.16;100822.72;4989421;28;45603;-76
2021/07/31 09:19:13;;;;;;;;;2.00;2.00;;;;;20.73;53.54;100777.53;5001276;28;45186;-75
2021/07/31 09:21:42;;;;;;;;;3.25;3.25;;;;;20.88;52.83;100789.09;5001106;28;45245;-76
2021/07/31 09:24:22;;;;;;;;;3.50;3.50;;;;;21.08;53.33;100831.00;5000819;28;45578;-74
2021/07/31 09:26:50;;;;;;;;;3.75;3.75;;;;;20.98;53.15;100800.13;4995783;28;46365;-75
2021/07/31 09:29:26;;;;;;;;;4.00;3.00;;;;;21.05;53.26;100815.84;4996876;28;45765;-72
2021/07/31 09:31:54;;;;;;;;;4.75;2.00;;;;;21.07;53.05;100816.59;4997226;28;45527;-75
2021/07/31 09:34:46;;;;;;;;;4.00;4.00;;;;;21.14;52.58;100814.28;4992829;28;45944;-76
2021/07/31 09:37:27;;;;;;;;;4.00;3.50;;;;;21.07;53.26;100794.03;4992551;28;45617;-77
2021/07/31 09:40:04;;;;;;;;;4.00;3.00;;;;;21.20;52.64;100807.50;4988758;28;45806;-76
2021/07/31 09:42:35;;;;;;;;;3.25;3.00;;;;;21.17;51.75;100794.19;4991860;28;45396;-76
2021/07/31 09:45:09;;;;;;;;;3.75;3.00;;;;;21.27;52.51;100811.50;5004984;28;45625;-78
2021/07/31 09:47:36;;;;;;;;;3.00;3.00;;;;;21.20;53.18;100775.81;4996110;28;45565;-76
2021/07/31 09:50:02;;;;;;;;;3.50;3.50;;;;;21.35;52.43;100800.94;4995612;28;45444;-77
2021/07/31 09:52:28;;;;;;;;;5.00;3.75;;;;;21.40;51.87;100800.53;4996403;28;45892;-76
2021/07/31 09:54:57;;;;;;;;;4.00;4.00;;;;;21.32;51.93;100790.28;4995478;28;45709;-76
2021/07/31 09:57:26;;;;;;;;;2.00;2.00;;;;;21.25;51.85;100765.47;4992535;28;48012;-76
2021/07/31 09:59:55;;;;;;;;;3.75;2.00;;;;;21.26;51.65;100756.31;4995990;28;45494;-75
2021/07/31 10:02:21;;;;;;;;;3.25;3.25;;;;;21.43;51.81;100773.16;4995585;28;45666;-77
2021/07/31 10:04:48;;;;;;;;;2.50;2.50;;;;;21.53;51.62;100782.34;4995858;28;45383;-74
2021/07/31 10:07:15;;;;;;;;;2.75;2.75;;;;;21.65;52.67;100794.09;4994677;28;47334;-75
2021/07/31 10:09:48;;;;;;;;;2.25;2.25;;;;;21.58;51.46;100762.97;4995919;28;45529;-74
2021/07/31 10:12:15;;;;;;;;;4.25;4.00;;;;;21.74;51.67;100789.81;4995649;28;45561;-75
2021/07/31 10:14:42;;;;;;;;;3.75;2.25;;;;;21.71;51.56;100769.19;4995417;28;45634;-76
2021/07/31 10:17:09;;;;;;;;;2.75;2.75;;;;;21.67;51.41;100750.53;4994472;28;47277;-76
2021/07/31 10:19:39;;;;;;;;;5.00;4.00;;;;;21.81;50.50;100770.19;4995720;28;45727;-76
2021/07/31 10:22:05;;;;;;;;;2.75;2.75;;;;;21.61;51.38;100738.31;4995600;28;45917;-76
2021/07/31 10:24:52;;;;;;;;;3.75;3.00;;;;;21.90;51.31;100773.16;4994257;28;45743;-75
2021/07/31 10:27:19;;;;;;;;;4.00;3.00;;;;;21.90;50.71;100774.03;4994543;28;46553;-76
2021/07/31 10:29:47;;;;;;;;;3.00;3.00;;;;;21.96;50.35;100783.53;4995887;28;45786;-75
2021/07/31 10:32:21;;;;;;;;;3.75;3.00;;;;;21.94;50.87;100775.50;4994215;28;45638;-76
2021/07/31 10:34:49;;;;;;;;;5.00;4.25;;;;;21.92;50.62;100771.16;4993250;28;45979;-75
2021/07/31 10:37:30;;;;;;;;;5.50;4.25;;;;;21.98;51.01;100773.41;4995251;28;45829;-75
2021/07/31 10:40:00;;;;;;;;;4.75;4.75;;;;;21.96;51.29;100767.25;4992928;28;45454;-74
2021/07/31 10:42:26;;;;;;;;;4.75;3.00;;;;;21.99;50.82;100777.88;4984104;28;45598;-76
2021/07/31 10:45:16;;;;;;;;;5.25;4.25;;;;;22.01;50.62;100782.19;5001088;28;45641;-75
2021/07/31 10:47:45;;;;;;;;;3.00;3.00;;;;;21.95;51.09;100766.38;4995331;28;45670;-75
2021/07/31 10:50:23;;;;;;;;;3.75;3.75;;;;;22.04;50.18;100780.22;4995264;28;45589;-75
2021/07/31 10:52:57;;;;;;;;;3.75;3.75;;;;;22.04;50.62;100772.94;4995760;28;45644;-68
2021/07/31 10:55:35;;;;;;;;;3.75;3.25;;;;;22.00;50.96;100764.16;4998570;28;45450;-70
2021/07/31 10:58:18;;;;;;;;;4.50;4.00;;;;;21.91;50.93;100756.72;4999532;28;46528;-70
2021/07/31 11:01:21;;;;;;;;;9.25;6.25;;;;;21.86;50.59;100745.38;4998468;28;45612;-70
2021/07/31 11:03:46;;;;;;;;;3.50;3.50;;;;;21.99;50.55;100762.41;4978494;28;45510;-70
2021/07/31 11:06:12;;;;;;;;;5.25;4.00;;;;;21.99;50.41;100762.41;4999601;28;45414;-70
2021/07/31 11:08:47;;;;;;;;;3.50;3.50;;;;;22.10;50.86;100777.00;4999782;28;46387;-70
2021/07/31 11:11:15;;;;;;;;;5.75;3.25;;;;;22.11;50.55;100779.59;4999508;28;45635;-70
2021/07/31 11:13:46;;;;;;;;;2.00;2.00;;;;;22.12;49.94;100773.19;4999965;28;45263;-70
2021/07/31 11:16:13;;;;;;;;;4.00;4.00;;;;;22.11;50.21;100770.59;4999715;28;45589;-70
2021/07/31 11:18:39;;;;;;;;;3.75;3.25;;;;;22.12;49.96;100765.03;4999699;28;46182;-70
2021/07/31 11:21:12;;;;;;;;;2.25;2.25;;;;;22.15;50.55;100770.22;4998138;28;45328;-70
2021/07/31 11:23:41;;;;;;;;;3.00;3.00;;;;;22.13;50.33;100763.16;4999471;28;45323;-69